sensor_id;sensor_type;location;lat;lon;timestamp;P1;durP1;ratioP1;P2;durP2;ratioP2
6376;SDS011;3221;48.858;10.128;2023-09-07T00:00:50;9.97;;;5.30;;
6376;SDS011;3221;48.858;10.128;2023-09-07T00:03:17;6.27;;;5.20;;
6376;SDS011;3221;48.858;10.128;2023-09-07T00:05:44;6.17;;;4.53;;
6376;SDS011;3221;48.858;10.128;2023-09-07T00:08:11;5.83;;;4.93;;
6376;SDS011;3221;48.858;10.128;2023-09-07T00:10:38;5.27;;;4.50;;
6376;SDS011;3221;48.858;10.128;2023-09-07T00:13:05;4.20;;;3.80;;
6376;SDS011;3221;48.858;10.128;2023-09-07T00:15:36;4.53;;;4.13;;
6376;SDS011;3221;48.858;10.128;2023-09-07T00:18:04;4.73;;;4.03;;
6376;SDS011;3221;48.858;10.128;2023-09-07T00:20:31;5.60;;;3.90;;
6376;SDS011;3221;48.858;10.128;2023-09-07T00:23:00;4.43;;;4.00;;
6376;SDS011;3221;48.858;10.128;2023-09-07T00:25:27;4.40;;;4.00;;
6376;SDS011;3221;48.858;10.128;2023-09-07T00:27:54;7.00;;;4.30;;
6376;SDS011;3221;48.858;10.128;2023-09-07T00:30:21;4.90;;;4.40;;
6376;SDS011;3221;48.858;10.128;2023-09-07T00:32:48;5.97;;;4.47;;
6376;SDS011;3221;48.858;10.128;2023-09-07T00:35:15;5.27;;;4.20;;
6376;SDS011;3221;48.858;10.128;2023-09-07T00:37:42;4.73;;;4.23;;
6376;SDS011;3221;48.858;10.128;2023-09-07T00:40:08;5.57;;;4.80;;
6376;SDS011;3221;48.858;10.128;2023-09-07T00:42:36;4.90;;;4.40;;
6376;SDS011;3221;48.858;10.128;2023-09-07T00:45:03;5.07;;;4.57;;
6376;SDS011;3221;48.858;10.128;2023-09-07T00:47:31;5.03;;;4.50;;
6376;SDS011;3221;48.858;10.128;2023-09-07T00:50:02;5.80;;;4.10;;
6376;SDS011;3221;48.858;10.128;2023-09-07T00:52:33;5.93;;;4.60;;
6376;SDS011;3221;48.858;10.128;2023-09-07T00:55:01;5.93;;;4.80;;
6376;SDS011;3221;48.858;10.128;2023-09-07T00:57:30;5.00;;;4.50;;
6376;SDS011;3221;48.858;10.128;2023-09-07T00:59:58;5.50;;;4.63;;
6376;SDS011;3221;48.858;10.128;2023-09-07T01:02:25;5.07;;;4.57;;
6376;SDS011;3221;48.858;10.128;2023-09-07T01:04:52;5.00;;;4.50;;
6376;SDS011;3221;48.858;10.128;2023-09-07T01:10:07;4.87;;;4.37;;
6376;SDS011;3221;48.858;10.128;2023-09-07T01:12:34;4.97;;;4.53;;
6376;SDS011;3221;48.858;10.128;2023-09-07T01:15:01;6.83;;;4.53;;
6376;SDS011;3221;48.858;10.128;2023-09-07T01:17:28;5.27;;;4.63;;
6376;SDS011;3221;48.858;10.128;2023-09-07T01:19:56;5.87;;;4.67;;
6376;SDS011;3221;48.858;10.128;2023-09-07T01:22:25;5.90;;;4.47;;
6376;SDS011;3221;48.858;10.128;2023-09-07T01:24:53;4.93;;;4.40;;
6376;SDS011;3221;48.858;10.128;2023-09-07T01:27:21;5.10;;;4.60;;
6376;SDS011;3221;48.858;10.128;2023-09-07T01:29:48;5.13;;;4.63;;
6376;SDS011;3221;48.858;10.128;2023-09-07T01:32:15;5.10;;;4.60;;
6376;SDS011;3221;48.858;10.128;2023-09-07T01:34:42;6.23;;;4.80;;
6376;SDS011;3221;48.858;10.128;2023-09-07T01:37:09;5.60;;;4.90;;
6376;SDS011;3221;48.858;10.128;2023-09-07T01:39:36;5.77;;;4.33;;
6376;SDS011;3221;48.858;10.128;2023-09-07T01:42:03;5.23;;;4.73;;
6376;SDS011;3221;48.858;10.128;2023-09-07T01:44:30;8.70;;;4.70;;
6376;SDS011;3221;48.858;10.128;2023-09-07T01:46:57;4.90;;;4.50;;
6376;SDS011;3221;48.858;10.128;2023-09-07T01:49:25;5.43;;;4.87;;
6376;SDS011;3221;48.858;10.128;2023-09-07T01:51:52;7.63;;;4.80;;
6376;SDS011;3221;48.858;10.128;2023-09-07T01:54:20;7.53;;;4.90;;
6376;SDS011;3221;48.858;10.128;2023-09-07T01:56:48;6.57;;;4.80;;
6376;SDS011;3221;48.858;10.128;2023-09-07T01:59:14;5.60;;;4.63;;
6376;SDS011;3221;48.858;10.128;2023-09-07T02:01:41;5.30;;;4.80;;
6376;SDS011;3221;48.858;10.128;2023-09-07T02:04:08;5.47;;;4.97;;
6376;SDS011;3221;48.858;10.128;2023-09-07T02:06:35;6.37;;;4.70;;
6376;SDS011;3221;48.858;10.128;2023-09-07T02:09:02;5.53;;;5.03;;
6376;SDS011;3221;48.858;10.128;2023-09-07T02:11:30;6.60;;;4.83;;
6376;SDS011;3221;48.858;10.128;2023-09-07T02:13:57;7.17;;;5.47;;
6376;SDS011;3221;48.858;10.128;2023-09-07T02:16:24;7.27;;;5.23;;
6376;SDS011;3221;48.858;10.128;2023-09-07T02:18:59;5.30;;;4.67;;
6376;SDS011;3221;48.858;10.128;2023-09-07T02:21:27;5.97;;;5.37;;
6376;SDS011;3221;48.858;10.128;2023-09-07T02:23:54;7.00;;;5.17;;
6376;SDS011;3221;48.858;10.128;2023-09-07T02:26:21;5.73;;;4.77;;
6376;SDS011;3221;48.858;10.128;2023-09-07T02:28:48;5.40;;;4.90;;
6376;SDS011;3221;48.858;10.128;2023-09-07T02:31:15;7.77;;;5.70;;
6376;SDS011;3221;48.858;10.128;2023-09-07T02:33:42;7.20;;;5.20;;
6376;SDS011;3221;48.858;10.128;2023-09-07T02:36:09;5.17;;;4.40;;
6376;SDS011;3221;48.858;10.128;2023-09-07T02:38:36;6.87;;;5.00;;
6376;SDS011;3221;48.858;10.128;2023-09-07T02:41:03;6.87;;;5.07;;
6376;SDS011;3221;48.858;10.128;2023-09-07T02:43:30;5.77;;;4.93;;
6376;SDS011;3221;48.858;10.128;2023-09-07T02:45:58;5.93;;;5.00;;
6376;SDS011;3221;48.858;10.128;2023-09-07T02:48:25;5.87;;;4.83;;
6376;SDS011;3221;48.858;10.128;2023-09-07T02:50:52;5.80;;;5.20;;
6376;SDS011;3221;48.858;10.128;2023-09-07T02:53:22;5.50;;;5.00;;
6376;SDS011;3221;48.858;10.128;2023-09-07T02:55:49;5.60;;;5.10;;
6376;SDS011;3221;48.858;10.128;2023-09-07T02:58:16;5.87;;;5.27;;
6376;SDS011;3221;48.858;10.128;2023-09-07T03:00:44;7.07;;;5.03;;
6376;SDS011;3221;48.858;10.128;2023-09-07T03:03:16;5.60;;;5.00;;
6376;SDS011;3221;48.858;10.128;2023-09-07T03:05:45;7.53;;;5.20;;
6376;SDS011;3221;48.858;10.128;2023-09-07T03:08:12;5.43;;;4.90;;
6376;SDS011;3221;48.858;10.128;2023-09-07T03:10:39;7.80;;;4.90;;
6376;SDS011;3221;48.858;10.128;2023-09-07T03:13:07;5.97;;;4.83;;
6376;SDS011;3221;48.858;10.128;2023-09-07T03:15:35;5.40;;;4.90;;
6376;SDS011;3221;48.858;10.128;2023-09-07T03:18:05;5.07;;;4.67;;
6376;SDS011;3221;48.858;10.128;2023-09-07T03:20:33;6.13;;;5.10;;
6376;SDS011;3221;48.858;10.128;2023-09-07T03:23:02;7.43;;;4.93;;
6376;SDS011;3221;48.858;10.128;2023-09-07T03:25:30;6.23;;;5.60;;
6376;SDS011;3221;48.858;10.128;2023-09-07T03:27:57;9.47;;;5.00;;
6376;SDS011;3221;48.858;10.128;2023-09-07T03:30:24;5.20;;;4.70;;
6376;SDS011;3221;48.858;10.128;2023-09-07T03:32:52;7.47;;;5.23;;
6376;SDS011;3221;48.858;10.128;2023-09-07T03:35:19;7.87;;;5.17;;
6376;SDS011;3221;48.858;10.128;2023-09-07T03:37:46;7.43;;;4.87;;
6376;SDS011;3221;48.858;10.128;2023-09-07T03:40:13;6.97;;;5.03;;
6376;SDS011;3221;48.858;10.128;2023-09-07T03:42:41;6.00;;;5.20;;
6376;SDS011;3221;48.858;10.128;2023-09-07T03:45:10;7.03;;;5.27;;
6376;SDS011;3221;48.858;10.128;2023-09-07T03:47:37;5.93;;;5.33;;
6376;SDS011;3221;48.858;10.128;2023-09-07T03:50:05;5.90;;;5.00;;
6376;SDS011;3221;48.858;10.128;2023-09-07T03:52:32;5.90;;;5.23;;
6376;SDS011;3221;48.858;10.128;2023-09-07T03:55:01;5.50;;;5.00;;
6376;SDS011;3221;48.858;10.128;2023-09-07T03:57:29;5.97;;;5.20;;
6376;SDS011;3221;48.858;10.128;2023-09-07T03:59:56;5.73;;;5.17;;
6376;SDS011;3221;48.858;10.128;2023-09-07T04:02:24;6.33;;;4.87;;
6376;SDS011;3221;48.858;10.128;2023-09-07T04:04:52;5.73;;;5.23;;
6376;SDS011;3221;48.858;10.128;2023-09-07T04:07:20;5.40;;;4.90;;
6376;SDS011;3221;48.858;10.128;2023-09-07T04:09:47;5.83;;;5.33;;
6376;SDS011;3221;48.858;10.128;2023-09-07T04:12:16;7.47;;;5.40;;
6376;SDS011;3221;48.858;10.128;2023-09-07T04:14:43;5.87;;;5.13;;
6376;SDS011;3221;48.858;10.128;2023-09-07T04:17:11;5.70;;;5.10;;
6376;SDS011;3221;48.858;10.128;2023-09-07T04:19:38;6.20;;;5.17;;
6376;SDS011;3221;48.858;10.128;2023-09-07T04:22:05;7.93;;;5.50;;
6376;SDS011;3221;48.858;10.128;2023-09-07T04:24:32;6.07;;;4.83;;
6376;SDS011;3221;48.858;10.128;2023-09-07T04:27:00;6.37;;;5.27;;
6376;SDS011;3221;48.858;10.128;2023-09-07T04:29:29;6.73;;;5.13;;
6376;SDS011;3221;48.858;10.128;2023-09-07T04:31:56;5.90;;;5.10;;
6376;SDS011;3221;48.858;10.128;2023-09-07T04:34:23;5.53;;;5.03;;
6376;SDS011;3221;48.858;10.128;2023-09-07T04:36:52;5.47;;;4.97;;
6376;SDS011;3221;48.858;10.128;2023-09-07T04:39:19;6.30;;;5.60;;
6376;SDS011;3221;48.858;10.128;2023-09-07T04:41:47;7.97;;;6.27;;
6376;SDS011;3221;48.858;10.128;2023-09-07T04:44:14;5.97;;;5.00;;
6376;SDS011;3221;48.858;10.128;2023-09-07T04:46:41;5.47;;;5.00;;
6376;SDS011;3221;48.858;10.128;2023-09-07T04:49:09;6.30;;;5.17;;
6376;SDS011;3221;48.858;10.128;2023-09-07T04:51:36;6.07;;;5.10;;
6376;SDS011;3221;48.858;10.128;2023-09-07T04:54:03;6.27;;;5.67;;
6376;SDS011;3221;48.858;10.128;2023-09-07T04:56:30;7.03;;;5.93;;
6376;SDS011;3221;48.858;10.128;2023-09-07T04:58:57;6.50;;;5.80;;
6376;SDS011;3221;48.858;10.128;2023-09-07T05:01:25;6.80;;;5.27;;
6376;SDS011;3221;48.858;10.128;2023-09-07T05:03:53;5.63;;;4.90;;
6376;SDS011;3221;48.858;10.128;2023-09-07T05:06:21;5.90;;;5.30;;
6376;SDS011;3221;48.858;10.128;2023-09-07T05:08:51;5.97;;;5.47;;
6376;SDS011;3221;48.858;10.128;2023-09-07T05:11:17;5.63;;;4.90;;
6376;SDS011;3221;48.858;10.128;2023-09-07T05:13:44;5.27;;;4.87;;
6376;SDS011;3221;48.858;10.128;2023-09-07T05:16:11;6.13;;;5.53;;
6376;SDS011;3221;48.858;10.128;2023-09-07T05:18:40;6.50;;;4.93;;
6376;SDS011;3221;48.858;10.128;2023-09-07T05:21:14;7.00;;;5.30;;
6376;SDS011;3221;48.858;10.128;2023-09-07T05:23:42;6.67;;;5.47;;
6376;SDS011;3221;48.858;10.128;2023-09-07T05:26:09;5.47;;;4.93;;
6376;SDS011;3221;48.858;10.128;2023-09-07T05:28:36;6.00;;;4.90;;
6376;SDS011;3221;48.858;10.128;2023-09-07T05:31:03;5.80;;;4.93;;
6376;SDS011;3221;48.858;10.128;2023-09-07T05:33:31;6.47;;;5.87;;
6376;SDS011;3221;48.858;10.128;2023-09-07T05:35:58;7.73;;;5.10;;
6376;SDS011;3221;48.858;10.128;2023-09-07T05:38:25;7.83;;;5.80;;
6376;SDS011;3221;48.858;10.128;2023-09-07T05:40:53;6.13;;;5.53;;
6376;SDS011;3221;48.858;10.128;2023-09-07T05:43:22;6.07;;;5.37;;
6376;SDS011;3221;48.858;10.128;2023-09-07T05:45:49;8.33;;;5.77;;
6376;SDS011;3221;48.858;10.128;2023-09-07T05:48:17;6.00;;;5.30;;
6376;SDS011;3221;48.858;10.128;2023-09-07T05:50:45;7.93;;;5.30;;
6376;SDS011;3221;48.858;10.128;2023-09-07T05:53:12;6.10;;;5.50;;
6376;SDS011;3221;48.858;10.128;2023-09-07T05:55:39;5.83;;;4.97;;
6376;SDS011;3221;48.858;10.128;2023-09-07T05:58:07;7.37;;;5.20;;
6376;SDS011;3221;48.858;10.128;2023-09-07T06:00:39;5.70;;;5.20;;
6376;SDS011;3221;48.858;10.128;2023-09-07T06:03:07;5.83;;;5.23;;
6376;SDS011;3221;48.858;10.128;2023-09-07T06:05:36;6.00;;;5.40;;
6376;SDS011;3221;48.858;10.128;2023-09-07T06:08:06;5.67;;;4.90;;
6376;SDS011;3221;48.858;10.128;2023-09-07T06:10:34;6.93;;;5.50;;
6376;SDS011;3221;48.858;10.128;2023-09-07T06:13:02;6.30;;;5.00;;
6376;SDS011;3221;48.858;10.128;2023-09-07T06:15:30;6.00;;;5.40;;
6376;SDS011;3221;48.858;10.128;2023-09-07T06:17:57;5.83;;;5.33;;
6376;SDS011;3221;48.858;10.128;2023-09-07T06:20:25;5.53;;;5.03;;
6376;SDS011;3221;48.858;10.128;2023-09-07T06:22:53;5.60;;;5.10;;
6376;SDS011;3221;48.858;10.128;2023-09-07T06:25:20;5.67;;;5.17;;
6376;SDS011;3221;48.858;10.128;2023-09-07T06:27:49;5.67;;;5.17;;
6376;SDS011;3221;48.858;10.128;2023-09-07T06:30:15;6.47;;;4.87;;
6376;SDS011;3221;48.858;10.128;2023-09-07T06:32:42;7.20;;;5.30;;
6376;SDS011;3221;48.858;10.128;2023-09-07T06:35:10;6.97;;;5.03;;
6376;SDS011;3221;48.858;10.128;2023-09-07T06:37:37;4.90;;;4.50;;
6376;SDS011;3221;48.858;10.128;2023-09-07T06:40:10;6.47;;;5.47;;
6376;SDS011;3221;48.858;10.128;2023-09-07T06:42:38;5.83;;;5.23;;
6376;SDS011;3221;48.858;10.128;2023-09-07T06:45:10;6.30;;;5.07;;
6376;SDS011;3221;48.858;10.128;2023-09-07T06:47:38;7.07;;;5.40;;
6376;SDS011;3221;48.858;10.128;2023-09-07T06:50:07;6.73;;;5.23;;
6376;SDS011;3221;48.858;10.128;2023-09-07T06:52:34;5.30;;;4.63;;
6376;SDS011;3221;48.858;10.128;2023-09-07T06:55:01;5.67;;;5.17;;
6376;SDS011;3221;48.858;10.128;2023-09-07T06:57:28;5.30;;;4.80;;
6376;SDS011;3221;48.858;10.128;2023-09-07T06:59:56;5.60;;;5.10;;
6376;SDS011;3221;48.858;10.128;2023-09-07T07:02:23;5.90;;;5.33;;
6376;SDS011;3221;48.858;10.128;2023-09-07T07:04:50;7.37;;;4.80;;
6376;SDS011;3221;48.858;10.128;2023-09-07T07:07:18;8.93;;;5.20;;
6376;SDS011;3221;48.858;10.128;2023-09-07T07:09:45;5.47;;;4.93;;
6376;SDS011;3221;48.858;10.128;2023-09-07T07:12:12;6.47;;;4.80;;
6376;SDS011;3221;48.858;10.128;2023-09-07T07:14:39;5.40;;;4.90;;
6376;SDS011;3221;48.858;10.128;2023-09-07T07:17:06;5.90;;;4.87;;
6376;SDS011;3221;48.858;10.128;2023-09-07T07:19:35;5.47;;;4.97;;
6376;SDS011;3221;48.858;10.128;2023-09-07T07:22:03;7.90;;;4.97;;
6376;SDS011;3221;48.858;10.128;2023-09-07T07:24:31;5.37;;;4.87;;
6376;SDS011;3221;48.858;10.128;2023-09-07T07:26:59;5.43;;;4.90;;
6376;SDS011;3221;48.858;10.128;2023-09-07T07:29:29;5.27;;;4.77;;
6376;SDS011;3221;48.858;10.128;2023-09-07T07:31:59;5.90;;;5.27;;
6376;SDS011;3221;48.858;10.128;2023-09-07T07:34:27;5.47;;;4.97;;
6376;SDS011;3221;48.858;10.128;2023-09-07T07:36:55;6.30;;;5.07;;
6376;SDS011;3221;48.858;10.128;2023-09-07T07:39:22;6.10;;;5.30;;
6376;SDS011;3221;48.858;10.128;2023-09-07T07:41:50;5.00;;;4.50;;
6376;SDS011;3221;48.858;10.128;2023-09-07T07:44:17;5.77;;;5.17;;
6376;SDS011;3221;48.858;10.128;2023-09-07T07:46:45;5.77;;;5.13;;
6376;SDS011;3221;48.858;10.128;2023-09-07T07:49:13;5.53;;;5.07;;
6376;SDS011;3221;48.858;10.128;2023-09-07T07:51:41;5.47;;;4.93;;
6376;SDS011;3221;48.858;10.128;2023-09-07T07:54:09;6.90;;;4.73;;
6376;SDS011;3221;48.858;10.128;2023-09-07T07:56:38;5.40;;;4.90;;
6376;SDS011;3221;48.858;10.128;2023-09-07T07:59:06;5.60;;;5.00;;
6376;SDS011;3221;48.858;10.128;2023-09-07T08:01:33;6.00;;;5.03;;
6376;SDS011;3221;48.858;10.128;2023-09-07T08:04:02;5.23;;;4.73;;
6376;SDS011;3221;48.858;10.128;2023-09-07T08:06:31;6.60;;;5.10;;
6376;SDS011;3221;48.858;10.128;2023-09-07T08:08:58;5.33;;;4.83;;
6376;SDS011;3221;48.858;10.128;2023-09-07T08:11:25;8.17;;;5.20;;
6376;SDS011;3221;48.858;10.128;2023-09-07T08:13:53;5.87;;;5.20;;
6376;SDS011;3221;48.858;10.128;2023-09-07T08:16:21;5.80;;;5.20;;
6376;SDS011;3221;48.858;10.128;2023-09-07T08:18:49;5.90;;;5.10;;
6376;SDS011;3221;48.858;10.128;2023-09-07T08:21:16;5.30;;;4.73;;
6376;SDS011;3221;48.858;10.128;2023-09-07T08:23:44;6.20;;;5.60;;
6376;SDS011;3221;48.858;10.128;2023-09-07T08:26:12;6.27;;;5.27;;
6376;SDS011;3221;48.858;10.128;2023-09-07T08:28:42;6.20;;;5.37;;
6376;SDS011;3221;48.858;10.128;2023-09-07T08:31:13;6.00;;;5.40;;
6376;SDS011;3221;48.858;10.128;2023-09-07T08:33:48;7.10;;;5.30;;
6376;SDS011;3221;48.858;10.128;2023-09-07T08:36:17;6.80;;;5.53;;
6376;SDS011;3221;48.858;10.128;2023-09-07T08:38:43;5.70;;;5.20;;
6376;SDS011;3221;48.858;10.128;2023-09-07T08:41:10;6.20;;;5.60;;
6376;SDS011;3221;48.858;10.128;2023-09-07T08:43:39;6.80;;;5.30;;
6376;SDS011;3221;48.858;10.128;2023-09-07T08:46:17;7.07;;;5.07;;
6376;SDS011;3221;48.858;10.128;2023-09-07T08:48:47;5.77;;;5.17;;
6376;SDS011;3221;48.858;10.128;2023-09-07T08:51:17;8.23;;;5.17;;
6376;SDS011;3221;48.858;10.128;2023-09-07T08:53:45;6.57;;;5.10;;
6376;SDS011;3221;48.858;10.128;2023-09-07T08:56:13;6.97;;;5.07;;
6376;SDS011;3221;48.858;10.128;2023-09-07T08:58:41;7.20;;;5.33;;
6376;SDS011;3221;48.858;10.128;2023-09-07T09:01:08;8.10;;;5.00;;
6376;SDS011;3221;48.858;10.128;2023-09-07T09:03:35;5.27;;;4.77;;
6376;SDS011;3221;48.858;10.128;2023-09-07T09:06:03;6.60;;;4.80;;
6376;SDS011;3221;48.858;10.128;2023-09-07T09:11:31;5.40;;;4.90;;
6376;SDS011;3221;48.858;10.128;2023-09-07T09:13:58;5.80;;;5.20;;
6376;SDS011;3221;48.858;10.128;2023-09-07T09:16:25;6.13;;;5.33;;
6376;SDS011;3221;48.858;10.128;2023-09-07T09:18:58;5.13;;;4.63;;
6376;SDS011;3221;48.858;10.128;2023-09-07T09:21:26;5.27;;;4.80;;
6376;SDS011;3221;48.858;10.128;2023-09-07T09:23:55;6.70;;;5.40;;
6376;SDS011;3221;48.858;10.128;2023-09-07T09:26:23;5.57;;;5.07;;
6376;SDS011;3221;48.858;10.128;2023-09-07T09:28:55;6.73;;;5.30;;
6376;SDS011;3221;48.858;10.128;2023-09-07T09:31:23;7.10;;;5.23;;
6376;SDS011;3221;48.858;10.128;2023-09-07T09:33:51;5.80;;;5.10;;
6376;SDS011;3221;48.858;10.128;2023-09-07T09:36:19;6.60;;;5.30;;
6376;SDS011;3221;48.858;10.128;2023-09-07T09:38:47;5.50;;;5.00;;
6376;SDS011;3221;48.858;10.128;2023-09-07T09:41:20;5.83;;;5.27;;
6376;SDS011;3221;48.858;10.128;2023-09-07T09:43:47;6.37;;;5.00;;
6376;SDS011;3221;48.858;10.128;2023-09-07T09:46:18;7.00;;;5.47;;
6376;SDS011;3221;48.858;10.128;2023-09-07T09:48:45;6.43;;;5.20;;
6376;SDS011;3221;48.858;10.128;2023-09-07T09:51:12;5.83;;;5.30;;
6376;SDS011;3221;48.858;10.128;2023-09-07T09:53:41;7.83;;;4.93;;
6376;SDS011;3221;48.858;10.128;2023-09-07T09:56:08;5.47;;;4.97;;
6376;SDS011;3221;48.858;10.128;2023-09-07T09:58:36;5.93;;;5.32;;
6376;SDS011;3221;48.858;10.128;2023-09-07T10:01:03;7.10;;;5.20;;
6376;SDS011;3221;48.858;10.128;2023-09-07T10:03:33;5.60;;;5.10;;
6376;SDS011;3221;48.858;10.128;2023-09-07T10:06:07;6.23;;;5.40;;
6376;SDS011;3221;48.858;10.128;2023-09-07T10:08:37;5.60;;;5.10;;
6376;SDS011;3221;48.858;10.128;2023-09-07T10:11:08;5.90;;;5.40;;
6376;SDS011;3221;48.858;10.128;2023-09-07T10:13:37;5.53;;;5.03;;
6376;SDS011;3221;48.858;10.128;2023-09-07T10:16:05;5.78;;;5.25;;
6376;SDS011;3221;48.858;10.128;2023-09-07T10:18:37;5.68;;;5.18;;
6376;SDS011;3221;48.858;10.128;2023-09-07T10:21:05;5.50;;;5.00;;
6376;SDS011;3221;48.858;10.128;2023-09-07T10:23:39;5.80;;;5.20;;
6376;SDS011;3221;48.858;10.128;2023-09-07T10:26:15;5.63;;;5.03;;
6376;SDS011;3221;48.858;10.128;2023-09-07T10:28:44;6.13;;;4.80;;
6376;SDS011;3221;48.858;10.128;2023-09-07T10:31:15;5.68;;;5.15;;
6376;SDS011;3221;48.858;10.128;2023-09-07T10:33:46;5.93;;;5.30;;
6376;SDS011;3221;48.858;10.128;2023-09-07T10:36:22;5.90;;;5.32;;
6376;SDS011;3221;48.858;10.128;2023-09-07T10:38:50;6.72;;;5.03;;
6376;SDS011;3221;48.858;10.128;2023-09-07T10:41:21;6.07;;;4.85;;
6376;SDS011;3221;48.858;10.128;2023-09-07T10:46:20;6.15;;;4.95;;
6376;SDS011;3221;48.858;10.128;2023-09-07T10:48:52;5.97;;;5.05;;
6376;SDS011;3221;48.858;10.128;2023-09-07T10:51:20;5.45;;;4.95;;
6376;SDS011;3221;48.858;10.128;2023-09-07T10:53:47;5.80;;;5.05;;
6376;SDS011;3221;48.858;10.128;2023-09-07T10:56:15;5.15;;;4.65;;
6376;SDS011;3221;48.858;10.128;2023-09-07T10:58:42;5.28;;;4.78;;
6376;SDS011;3221;48.858;10.128;2023-09-07T11:01:10;5.40;;;4.90;;
6376;SDS011;3221;48.858;10.128;2023-09-07T11:03:39;7.55;;;5.28;;
6376;SDS011;3221;48.858;10.128;2023-09-07T11:06:08;5.15;;;4.65;;
6376;SDS011;3221;48.858;10.128;2023-09-07T11:08:37;5.20;;;4.80;;
6376;SDS011;3221;48.858;10.128;2023-09-07T11:11:04;5.45;;;4.90;;
6376;SDS011;3221;48.858;10.128;2023-09-07T11:13:31;5.18;;;4.68;;
6376;SDS011;3221;48.858;10.128;2023-09-07T11:15:59;5.00;;;4.50;;
6376;SDS011;3221;48.858;10.128;2023-09-07T11:18:26;6.38;;;5.00;;
6376;SDS011;3221;48.858;10.128;2023-09-07T11:20:53;5.53;;;5.03;;
6376;SDS011;3221;48.858;10.128;2023-09-07T11:23:21;5.40;;;4.90;;
6376;SDS011;3221;48.858;10.128;2023-09-07T11:25:49;6.75;;;5.22;;
6376;SDS011;3221;48.858;10.128;2023-09-07T11:28:19;8.35;;;5.63;;
6376;SDS011;3221;48.858;10.128;2023-09-07T11:30:53;6.15;;;4.82;;
6376;SDS011;3221;48.858;10.128;2023-09-07T11:33:22;5.63;;;5.13;;
6376;SDS011;3221;48.858;10.128;2023-09-07T11:35:49;5.25;;;4.72;;
6376;SDS011;3221;48.858;10.128;2023-09-07T11:38:17;8.50;;;5.22;;
6376;SDS011;3221;48.858;10.128;2023-09-07T11:40:44;5.50;;;5.00;;
6376;SDS011;3221;48.858;10.128;2023-09-07T11:43:12;6.30;;;5.18;;
6376;SDS011;3221;48.858;10.128;2023-09-07T11:45:40;6.13;;;5.00;;
6376;SDS011;3221;48.858;10.128;2023-09-07T11:48:09;6.05;;;5.00;;
6376;SDS011;3221;48.858;10.128;2023-09-07T11:50:37;5.90;;;5.30;;
6376;SDS011;3221;48.858;10.128;2023-09-07T11:53:04;5.63;;;5.10;;
6376;SDS011;3221;48.858;10.128;2023-09-07T11:55:33;5.47;;;4.97;;
6376;SDS011;3221;48.858;10.128;2023-09-07T11:58:00;5.35;;;4.80;;
6376;SDS011;3221;48.858;10.128;2023-09-07T12:00:28;7.10;;;4.53;;
6376;SDS011;3221;48.858;10.128;2023-09-07T12:02:57;5.32;;;4.82;;
6376;SDS011;3221;48.858;10.128;2023-09-07T12:05:25;7.13;;;4.68;;
6376;SDS011;3221;48.858;10.128;2023-09-07T12:07:52;5.95;;;4.80;;
6376;SDS011;3221;48.858;10.128;2023-09-07T12:10:19;5.40;;;4.90;;
6376;SDS011;3221;48.858;10.128;2023-09-07T12:12:46;10.85;;;5.00;;
6376;SDS011;3221;48.858;10.128;2023-09-07T12:15:13;5.10;;;4.60;;
6376;SDS011;3221;48.858;10.128;2023-09-07T12:17:40;5.95;;;5.45;;
6376;SDS011;3221;48.858;10.128;2023-09-07T12:20:08;4.88;;;4.43;;
6376;SDS011;3221;48.858;10.128;2023-09-07T12:22:37;5.53;;;4.68;;
6376;SDS011;3221;48.858;10.128;2023-09-07T12:25:05;5.97;;;5.00;;
6376;SDS011;3221;48.858;10.128;2023-09-07T12:27:44;5.13;;;4.72;;
6376;SDS011;3221;48.858;10.128;2023-09-07T12:30:18;6.00;;;4.72;;
6376;SDS011;3221;48.858;10.128;2023-09-07T12:32:47;6.38;;;4.63;;
6376;SDS011;3221;48.858;10.128;2023-09-07T12:35:14;6.20;;;4.72;;
6376;SDS011;3221;48.858;10.128;2023-09-07T12:37:42;8.45;;;4.60;;
6376;SDS011;3221;48.858;10.128;2023-09-07T12:40:09;6.78;;;4.38;;
6376;SDS011;3221;48.858;10.128;2023-09-07T12:42:39;4.78;;;4.38;;
6376;SDS011;3221;48.858;10.128;2023-09-07T12:45:11;6.13;;;4.85;;
6376;SDS011;3221;48.858;10.128;2023-09-07T12:47:39;5.70;;;4.57;;
6376;SDS011;3221;48.858;10.128;2023-09-07T12:50:07;5.28;;;4.65;;
6376;SDS011;3221;48.858;10.128;2023-09-07T12:52:34;5.15;;;4.18;;
6376;SDS011;3221;48.858;10.128;2023-09-07T12:55:05;12.55;;;5.32;;
6376;SDS011;3221;48.858;10.128;2023-09-07T12:57:33;5.40;;;4.43;;
6376;SDS011;3221;48.858;10.128;2023-09-07T13:00:01;4.22;;;3.85;;
6376;SDS011;3221;48.858;10.128;2023-09-07T13:02:32;4.40;;;4.00;;
6376;SDS011;3221;48.858;10.128;2023-09-07T13:04:59;4.93;;;4.53;;
6376;SDS011;3221;48.858;10.128;2023-09-07T13:07:26;4.90;;;4.38;;
6376;SDS011;3221;48.858;10.128;2023-09-07T13:09:53;5.32;;;4.38;;
6376;SDS011;3221;48.858;10.128;2023-09-07T13:12:21;4.93;;;4.43;;
6376;SDS011;3221;48.858;10.128;2023-09-07T13:14:48;4.82;;;4.32;;
6376;SDS011;3221;48.858;10.128;2023-09-07T13:17:15;4.80;;;4.40;;
6376;SDS011;3221;48.858;10.128;2023-09-07T13:19:42;4.68;;;4.28;;
6376;SDS011;3221;48.858;10.128;2023-09-07T13:22:09;5.00;;;4.20;;
6376;SDS011;3221;48.858;10.128;2023-09-07T13:24:36;4.75;;;4.35;;
6376;SDS011;3221;48.858;10.128;2023-09-07T13:27:03;5.25;;;4.00;;
6376;SDS011;3221;48.858;10.128;2023-09-07T13:29:31;4.30;;;4.00;;
6376;SDS011;3221;48.858;10.128;2023-09-07T13:31:58;7.22;;;4.53;;
6376;SDS011;3221;48.858;10.128;2023-09-07T13:34:25;4.95;;;4.40;;
6376;SDS011;3221;48.858;10.128;2023-09-07T13:36:52;6.63;;;4.28;;
6376;SDS011;3221;48.858;10.128;2023-09-07T13:39:20;4.70;;;4.30;;
6376;SDS011;3221;48.858;10.128;2023-09-07T13:41:48;7.40;;;4.40;;
6376;SDS011;3221;48.858;10.128;2023-09-07T13:44:15;6.43;;;4.47;;
6376;SDS011;3221;48.858;10.128;2023-09-07T13:46:45;6.15;;;4.35;;
6376;SDS011;3221;48.858;10.128;2023-09-07T13:49:13;8.52;;;4.70;;
6376;SDS011;3221;48.858;10.128;2023-09-07T13:51:40;4.35;;;3.95;;
6376;SDS011;3221;48.858;10.128;2023-09-07T13:54:08;5.22;;;4.07;;
6376;SDS011;3221;48.858;10.128;2023-09-07T13:56:35;5.15;;;4.30;;
6376;SDS011;3221;48.858;10.128;2023-09-07T13:59:03;4.80;;;4.40;;
6376;SDS011;3221;48.858;10.128;2023-09-07T14:01:30;5.55;;;3.95;;
6376;SDS011;3221;48.858;10.128;2023-09-07T14:03:58;4.35;;;3.95;;
6376;SDS011;3221;48.858;10.128;2023-09-07T14:06:25;7.50;;;4.38;;
6376;SDS011;3221;48.858;10.128;2023-09-07T14:08:53;7.45;;;4.10;;
6376;SDS011;3221;48.858;10.128;2023-09-07T14:11:19;6.00;;;4.05;;
6376;SDS011;3221;48.858;10.128;2023-09-07T14:13:47;7.97;;;4.70;;
6376;SDS011;3221;48.858;10.128;2023-09-07T14:16:18;4.78;;;3.83;;
6376;SDS011;3221;48.858;10.128;2023-09-07T14:18:46;7.90;;;4.07;;
6376;SDS011;3221;48.858;10.128;2023-09-07T14:21:14;4.80;;;4.13;;
6376;SDS011;3221;48.858;10.128;2023-09-07T14:23:41;4.53;;;4.07;;
6376;SDS011;3221;48.858;10.128;2023-09-07T14:26:12;4.75;;;4.30;;
6376;SDS011;3221;48.858;10.128;2023-09-07T14:28:39;3.97;;;3.67;;
6376;SDS011;3221;48.858;10.128;2023-09-07T14:31:06;4.63;;;4.00;;
6376;SDS011;3221;48.858;10.128;2023-09-07T14:33:34;4.50;;;3.95;;
6376;SDS011;3221;48.858;10.128;2023-09-07T14:36:05;5.20;;;4.00;;
6376;SDS011;3221;48.858;10.128;2023-09-07T14:38:33;6.15;;;4.30;;
6376;SDS011;3221;48.858;10.128;2023-09-07T14:41:06;5.75;;;4.00;;
6376;SDS011;3221;48.858;10.128;2023-09-07T14:43:34;6.47;;;4.30;;
6376;SDS011;3221;48.858;10.128;2023-09-07T14:46:01;4.85;;;4.00;;
6376;SDS011;3221;48.858;10.128;2023-09-07T14:48:28;4.57;;;4.18;;
6376;SDS011;3221;48.858;10.128;2023-09-07T14:50:55;4.85;;;3.67;;
6376;SDS011;3221;48.858;10.128;2023-09-07T14:53:22;4.47;;;3.97;;
6376;SDS011;3221;48.858;10.128;2023-09-07T14:55:49;4.53;;;4.10;;
6376;SDS011;3221;48.858;10.128;2023-09-07T14:58:15;4.93;;;4.13;;
6376;SDS011;3221;48.858;10.128;2023-09-07T15:00:42;6.28;;;3.92;;
6376;SDS011;3221;48.858;10.128;2023-09-07T15:03:09;4.10;;;3.70;;
6376;SDS011;3221;48.858;10.128;2023-09-07T15:05:36;4.18;;;3.78;;
6376;SDS011;3221;48.858;10.128;2023-09-07T15:08:03;5.07;;;4.00;;
6376;SDS011;3221;48.858;10.128;2023-09-07T15:10:31;4.30;;;3.90;;
6376;SDS011;3221;48.858;10.128;2023-09-07T15:13:00;4.68;;;3.90;;